Terminal Aerodrome Forecast
Issued by NWS

Home | Current Version | Previous Version | Text Only | Print | Product List | Glossary On
Versions: 1 2 3 4 5 6 7 8 9 10 11 12 13 14 15 16
000
FTUS45 KRIW 261700 RRA
TAFCOD
TAF
KCOD 261747Z 2618/2718 31010G18KT P6SM -RASN SCT012 OVC022
      TEMPO 2618/2619 4SM -SN OVC012
     FM261900 35014G20KT 3SM -SNRA SCT008 OVC015
     FM262300 35015KT P6SM VCSH BKN025
     FM270300 30007KT P6SM SCT025 BKN050
     FM271200 30004KT P6SM BKN060
      AMD LTD TO CLD VIS AND WIND=

USA.gov is the U.S. government's official web portal to all federal, state and local government web resources and services.